sensor_id;sensor_type;location;lat;lon;timestamp;pressure;altitude;pressure_sealevel;temperature;humidity
58467;BME280;44255;49.244;7.726;2023-03-12T04:30:58;58081.53;;;-156.57;100.00
58467;BME280;44255;49.244;7.726;2023-03-12T04:33:24;58081.53;;;-156.57;100.00
58467;BME280;44255;49.244;7.726;2023-03-12T04:35:52;58081.53;;;-156.57;100.00
58467;BME280;44255;49.244;7.726;2023-03-12T04:38:18;58081.53;;;-156.57;100.00
58467;BME280;44255;49.244;7.726;2023-03-12T04:40:44;58081.53;;;-156.57;100.00
58467;BME280;44255;49.244;7.726;2023-03-12T04:43:09;58081.53;;;-156.57;100.00
58467;BME280;44255;49.244;7.726;2023-03-12T04:45:34;58081.53;;;-156.57;100.00
58467;BME280;44255;49.244;7.726;2023-03-12T04:47:59;58081.53;;;-156.57;100.00
58467;BME280;44255;49.244;7.726;2023-03-12T04:50:24;58081.53;;;-156.57;100.00
58467;BME280;44255;49.244;7.726;2023-03-12T04:52:50;58081.53;;;-156.57;100.00
58467;BME280;44255;49.244;7.726;2023-03-12T04:55:15;58081.53;;;-156.57;100.00
58467;BME280;44255;49.244;7.726;2023-03-12T04:57:40;58081.53;;;-156.57;100.00
58467;BME280;44255;49.244;7.726;2023-03-12T05:00:05;58081.53;;;-156.57;100.00
58467;BME280;44255;49.244;7.726;2023-03-12T05:02:36;58081.53;;;-156.57;100.00
58467;BME280;44255;49.244;7.726;2023-03-12T05:05:02;58081.53;;;-156.57;100.00
58467;BME280;44255;49.244;7.726;2023-03-12T05:07:27;58081.53;;;-156.57;100.00
58467;BME280;44255;49.244;7.726;2023-03-12T05:09:52;58081.53;;;-156.57;100.00
58467;BME280;44255;49.244;7.726;2023-03-12T05:12:17;58081.53;;;-156.57;100.00
58467;BME280;44255;49.244;7.726;2023-03-12T05:14:42;58081.53;;;-156.57;100.00
58467;BME280;44255;49.244;7.726;2023-03-12T05:17:08;58081.53;;;-156.57;100.00
58467;BME280;44255;49.244;7.726;2023-03-12T05:19:33;58081.53;;;-156.57;100.00
58467;BME280;44255;49.244;7.726;2023-03-12T05:21:58;58081.53;;;-156.57;100.00
58467;BME280;44255;49.244;7.726;2023-03-12T05:24:23;58081.53;;;-156.57;100.00
58467;BME280;44255;49.244;7.726;2023-03-12T05:26:48;58081.53;;;-156.57;100.00
58467;BME280;44255;49.244;7.726;2023-03-12T05:29:14;58081.53;;;-156.57;100.00
58467;BME280;44255;49.244;7.726;2023-03-12T05:31:39;58081.53;;;-156.57;100.00
58467;BME280;44255;49.244;7.726;2023-03-12T05:34:04;58081.53;;;-156.57;100.00
58467;BME280;44255;49.244;7.726;2023-03-12T05:36:30;58081.53;;;-156.57;100.00
58467;BME280;44255;49.244;7.726;2023-03-12T05:38:55;58081.53;;;-156.57;100.00
58467;BME280;44255;49.244;7.726;2023-03-12T05:41:25;58081.53;;;-156.57;100.00
58467;BME280;44255;49.244;7.726;2023-03-12T05:43:53;58081.53;;;-156.57;100.00
58467;BME280;44255;49.244;7.726;2023-03-12T05:46:20;58081.53;;;-156.57;100.00
58467;BME280;44255;49.244;7.726;2023-03-12T05:48:45;58081.53;;;-156.57;100.00
58467;BME280;44255;49.244;7.726;2023-03-12T05:51:10;58081.53;;;-156.57;100.00
58467;BME280;44255;49.244;7.726;2023-03-12T05:53:35;58081.53;;;-156.57;100.00
58467;BME280;44255;49.244;7.726;2023-03-12T05:56:01;58081.53;;;-156.57;100.00
58467;BME280;44255;49.244;7.726;2023-03-12T05:58:27;58081.53;;;-156.57;100.00
58467;BME280;44255;49.244;7.726;2023-03-12T06:00:52;58081.53;;;-156.57;100.00
58467;BME280;44255;49.244;7.726;2023-03-12T06:03:17;58081.53;;;-156.57;100.00
58467;BME280;44255;49.244;7.726;2023-03-12T06:05:43;58081.53;;;-156.57;100.00
58467;BME280;44255;49.244;7.726;2023-03-12T06:08:08;58081.53;;;-156.57;100.00
58467;BME280;44255;49.244;7.726;2023-03-12T06:10:33;58081.53;;;-156.57;100.00
58467;BME280;44255;49.244;7.726;2023-03-12T06:13:01;58081.53;;;-156.57;100.00
58467;BME280;44255;49.244;7.726;2023-03-12T06:15:26;58081.53;;;-156.57;100.00
58467;BME280;44255;49.244;7.726;2023-03-12T06:17:51;58081.53;;;-156.57;100.00
58467;BME280;44255;49.244;7.726;2023-03-12T06:20:16;58081.53;;;-156.57;100.00
58467;BME280;44255;49.244;7.726;2023-03-12T06:22:41;58081.53;;;-156.57;100.00
58467;BME280;44255;49.244;7.726;2023-03-12T06:25:07;58081.53;;;-156.57;100.00
58467;BME280;44255;49.244;7.726;2023-03-12T06:27:32;58081.53;;;-156.57;100.00
58467;BME280;44255;49.244;7.726;2023-03-12T06:29:57;58081.53;;;-156.57;100.00
58467;BME280;44255;49.244;7.726;2023-03-12T06:32:22;58081.53;;;-156.57;100.00
58467;BME280;44255;49.244;7.726;2023-03-12T06:34:48;58081.53;;;-156.57;100.00
58467;BME280;44255;49.244;7.726;2023-03-12T06:37:13;58081.53;;;-156.57;100.00
58467;BME280;44255;49.244;7.726;2023-03-12T06:39:38;58081.53;;;-156.57;100.00
58467;BME280;44255;49.244;7.726;2023-03-12T06:42:03;58081.53;;;-156.57;100.00
58467;BME280;44255;49.244;7.726;2023-03-12T06:44:29;58081.53;;;-156.57;100.00
58467;BME280;44255;49.244;7.726;2023-03-12T06:46:54;58081.53;;;-156.57;100.00
58467;BME280;44255;49.244;7.726;2023-03-12T06:49:19;58081.53;;;-156.57;100.00
58467;BME280;44255;49.244;7.726;2023-03-12T06:51:44;58081.53;;;-156.57;100.00
58467;BME280;44255;49.244;7.726;2023-03-12T06:54:09;58081.53;;;-156.57;100.00
58467;BME280;44255;49.244;7.726;2023-03-12T06:56:35;58081.53;;;-156.57;100.00
58467;BME280;44255;49.244;7.726;2023-03-12T06:59:00;58081.53;;;-156.57;100.00
58467;BME280;44255;49.244;7.726;2023-03-12T07:01:25;58081.53;;;-156.57;100.00
58467;BME280;44255;49.244;7.726;2023-03-12T07:03:50;58081.53;;;-156.57;100.00
58467;BME280;44255;49.244;7.726;2023-03-12T07:06:19;58081.53;;;-156.57;100.00
58467;BME280;44255;49.244;7.726;2023-03-12T07:08:45;58081.53;;;-156.57;100.00
58467;BME280;44255;49.244;7.726;2023-03-12T07:11:10;58081.53;;;-156.57;100.00
58467;BME280;44255;49.244;7.726;2023-03-12T07:13:36;58081.53;;;-156.57;100.00
58467;BME280;44255;49.244;7.726;2023-03-12T07:16:01;58081.53;;;-156.57;100.00
58467;BME280;44255;49.244;7.726;2023-03-12T07:18:27;58081.53;;;-156.57;100.00
58467;BME280;44255;49.244;7.726;2023-03-12T07:20:52;58081.53;;;-156.57;100.00
58467;BME280;44255;49.244;7.726;2023-03-12T07:23:18;58081.53;;;-156.57;100.00
58467;BME280;44255;49.244;7.726;2023-03-12T07:25:43;58081.53;;;-156.57;100.00
58467;BME280;44255;49.244;7.726;2023-03-12T07:28:09;58081.53;;;-156.57;100.00
58467;BME280;44255;49.244;7.726;2023-03-12T07:30:34;58081.53;;;-156.57;100.00
58467;BME280;44255;49.244;7.726;2023-03-12T07:33:00;58081.53;;;-156.57;100.00
58467;BME280;44255;49.244;7.726;2023-03-12T07:35:26;58081.53;;;-156.57;100.00
58467;BME280;44255;49.244;7.726;2023-03-12T07:37:51;58081.53;;;-156.57;100.00
58467;BME280;44255;49.244;7.726;2023-03-12T07:40:16;58081.53;;;-156.57;100.00
58467;BME280;44255;49.244;7.726;2023-03-12T07:42:41;58081.53;;;-156.57;100.00
58467;BME280;44255;49.244;7.726;2023-03-12T07:45:07;58081.53;;;-156.57;100.00
58467;BME280;44255;49.244;7.726;2023-03-12T07:47:32;58081.53;;;-156.57;100.00
58467;BME280;44255;49.244;7.726;2023-03-12T07:49:57;58081.53;;;-156.57;100.00
58467;BME280;44255;49.244;7.726;2023-03-12T07:52:22;58081.53;;;-156.57;100.00
58467;BME280;44255;49.244;7.726;2023-03-12T07:54:48;58081.53;;;-156.57;100.00
58467;BME280;44255;49.244;7.726;2023-03-12T07:57:13;58081.53;;;-156.57;100.00
58467;BME280;44255;49.244;7.726;2023-03-12T07:59:38;58081.53;;;-156.57;100.00
58467;BME280;44255;49.244;7.726;2023-03-12T08:02:03;58081.53;;;-156.57;100.00
58467;BME280;44255;49.244;7.726;2023-03-12T08:04:28;58081.53;;;-156.57;100.00
58467;BME280;44255;49.244;7.726;2023-03-12T08:06:54;58081.53;;;-156.57;100.00
58467;BME280;44255;49.244;7.726;2023-03-12T08:09:19;58081.53;;;-156.57;100.00
58467;BME280;44255;49.244;7.726;2023-03-12T08:11:44;58081.53;;;-156.57;100.00
58467;BME280;44255;49.244;7.726;2023-03-12T08:14:09;58081.53;;;-156.57;100.00
58467;BME280;44255;49.244;7.726;2023-03-12T08:16:34;58081.53;;;-156.57;100.00
58467;BME280;44255;49.244;7.726;2023-03-12T08:19:00;58081.53;;;-156.57;100.00
58467;BME280;44255;49.244;7.726;2023-03-12T08:21:25;58081.53;;;-156.57;100.00
58467;BME280;44255;49.244;7.726;2023-03-12T08:23:50;58081.53;;;-156.57;100.00
58467;BME280;44255;49.244;7.726;2023-03-12T08:26:15;58081.53;;;-156.57;100.00
58467;BME280;44255;49.244;7.726;2023-03-12T08:28:40;58081.53;;;-156.57;100.00
58467;BME280;44255;49.244;7.726;2023-03-12T08:31:05;58081.53;;;-156.57;100.00
58467;BME280;44255;49.244;7.726;2023-03-12T08:33:31;58081.53;;;-156.57;100.00
58467;BME280;44255;49.244;7.726;2023-03-12T08:35:56;58081.53;;;-156.57;100.00
58467;BME280;44255;49.244;7.726;2023-03-12T08:38:21;58081.53;;;-156.57;100.00
58467;BME280;44255;49.244;7.726;2023-03-12T08:40:53;58081.53;;;-156.57;100.00
58467;BME280;44255;49.244;7.726;2023-03-12T08:43:18;58081.53;;;-156.57;100.00
58467;BME280;44255;49.244;7.726;2023-03-12T08:45:43;58081.53;;;-156.57;100.00
58467;BME280;44255;49.244;7.726;2023-03-12T08:48:09;58081.53;;;-156.57;100.00
58467;BME280;44255;49.244;7.726;2023-03-12T08:50:34;58081.53;;;-156.57;100.00
58467;BME280;44255;49.244;7.726;2023-03-12T08:52:59;58081.53;;;-156.57;100.00
58467;BME280;44255;49.244;7.726;2023-03-12T08:55:25;58081.53;;;-156.57;100.00
58467;BME280;44255;49.244;7.726;2023-03-12T08:57:52;58081.53;;;-156.57;100.00
58467;BME280;44255;49.244;7.726;2023-03-12T09:00:17;58081.53;;;-156.57;100.00
58467;BME280;44255;49.244;7.726;2023-03-12T09:02:43;58081.53;;;-156.57;100.00
58467;BME280;44255;49.244;7.726;2023-03-12T09:05:09;58081.53;;;-156.57;100.00
58467;BME280;44255;49.244;7.726;2023-03-12T09:07:35;58081.53;;;-156.57;100.00
58467;BME280;44255;49.244;7.726;2023-03-12T09:10:00;58081.53;;;-156.57;100.00
58467;BME280;44255;49.244;7.726;2023-03-12T09:12:26;58081.53;;;-156.57;100.00
58467;BME280;44255;49.244;7.726;2023-03-12T09:14:54;58081.53;;;-156.57;100.00
58467;BME280;44255;49.244;7.726;2023-03-12T09:17:19;58081.53;;;-156.57;100.00
58467;BME280;44255;49.244;7.726;2023-03-12T09:19:44;58081.53;;;-156.57;100.00
58467;BME280;44255;49.244;7.726;2023-03-12T09:22:09;58081.53;;;-156.57;100.00
58467;BME280;44255;49.244;7.726;2023-03-12T09:24:35;58081.53;;;-156.57;100.00
58467;BME280;44255;49.244;7.726;2023-03-12T09:27:01;58081.53;;;-156.57;100.00
58467;BME280;44255;49.244;7.726;2023-03-12T09:29:26;58081.53;;;-156.57;100.00
58467;BME280;44255;49.244;7.726;2023-03-12T09:31:51;58081.53;;;-156.57;100.00
58467;BME280;44255;49.244;7.726;2023-03-12T09:34:16;58081.53;;;-156.57;100.00
58467;BME280;44255;49.244;7.726;2023-03-12T09:36:42;58081.53;;;-156.57;100.00
58467;BME280;44255;49.244;7.726;2023-03-12T09:39:07;58081.53;;;-156.57;100.00
58467;BME280;44255;49.244;7.726;2023-03-12T09:41:33;58081.53;;;-156.57;100.00
58467;BME280;44255;49.244;7.726;2023-03-12T09:46:47;58081.53;;;-156.57;100.00
58467;BME280;44255;49.244;7.726;2023-03-12T09:51:59;58081.53;;;-156.57;100.00
58467;BME280;44255;49.244;7.726;2023-03-12T09:54:50;58081.53;;;-156.57;100.00
58467;BME280;44255;49.244;7.726;2023-03-12T09:57:11;58081.53;;;-156.57;100.00
58467;BME280;44255;49.244;7.726;2023-03-12T09:59:38;58081.53;;;-156.57;100.00
58467;BME280;44255;49.244;7.726;2023-03-12T10:02:05;58081.53;;;-156.57;100.00
58467;BME280;44255;49.244;7.726;2023-03-12T10:04:40;58081.53;;;-156.57;100.00
58467;BME280;44255;49.244;7.726;2023-03-12T10:07:10;58081.53;;;-156.57;100.00
58467;BME280;44255;49.244;7.726;2023-03-12T10:09:39;58081.53;;;-156.57;100.00
58467;BME280;44255;49.244;7.726;2023-03-12T10:22:10;58081.53;;;-156.57;100.00
58467;BME280;44255;49.244;7.726;2023-03-12T10:27:17;58081.53;;;-156.57;100.00
58467;BME280;44255;49.244;7.726;2023-03-12T10:29:43;58081.53;;;-156.57;100.00
58467;BME280;44255;49.244;7.726;2023-03-12T10:37:21;58081.53;;;-156.57;100.00
58467;BME280;44255;49.244;7.726;2023-03-12T10:39:48;58081.53;;;-156.57;100.00
58467;BME280;44255;49.244;7.726;2023-03-12T10:42:15;58081.53;;;-156.57;100.00
58467;BME280;44255;49.244;7.726;2023-03-12T10:44:40;58081.53;;;-156.57;100.00
58467;BME280;44255;49.244;7.726;2023-03-12T10:47:17;58081.53;;;-156.57;100.00
58467;BME280;44255;49.244;7.726;2023-03-12T10:49:47;58081.53;;;-156.57;100.00
58467;BME280;44255;49.244;7.726;2023-03-12T10:52:15;58081.53;;;-156.57;100.00
58467;BME280;44255;49.244;7.726;2023-03-12T10:54:42;58081.53;;;-156.57;100.00
58467;BME280;44255;49.244;7.726;2023-03-12T10:57:09;58081.53;;;-156.57;100.00
58467;BME280;44255;49.244;7.726;2023-03-12T10:59:38;58081.53;;;-156.57;100.00
58467;BME280;44255;49.244;7.726;2023-03-12T11:04:51;58081.53;;;-156.57;100.00
58467;BME280;44255;49.244;7.726;2023-03-12T11:07:18;58081.53;;;-156.57;100.00
58467;BME280;44255;49.244;7.726;2023-03-12T11:09:44;58081.53;;;-156.57;100.00
58467;BME280;44255;49.244;7.726;2023-03-12T11:12:23;58081.53;;;-156.57;100.00
58467;BME280;44255;49.244;7.726;2023-03-12T11:14:49;58081.53;;;-156.57;100.00
58467;BME280;44255;49.244;7.726;2023-03-12T11:17:24;58081.53;;;-156.57;100.00
58467;BME280;44255;49.244;7.726;2023-03-12T11:19:50;58081.53;;;-156.57;100.00
58467;BME280;44255;49.244;7.726;2023-03-12T11:22:25;58081.53;;;-156.57;100.00
58467;BME280;44255;49.244;7.726;2023-03-12T11:24:55;58081.53;;;-156.57;100.00
58467;BME280;44255;49.244;7.726;2023-03-12T11:27:25;58081.53;;;-156.57;100.00
58467;BME280;44255;49.244;7.726;2023-03-12T11:29:54;58081.53;;;-156.57;100.00
58467;BME280;44255;49.244;7.726;2023-03-12T11:34:52;58081.53;;;-156.57;100.00
58467;BME280;44255;49.244;7.726;2023-03-12T11:40:12;58081.53;;;-156.57;100.00
58467;BME280;44255;49.244;7.726;2023-03-12T11:45:21;58081.53;;;-156.57;100.00
58467;BME280;44255;49.244;7.726;2023-03-12T11:50:36;58081.53;;;-156.57;100.00
58467;BME280;44255;49.244;7.726;2023-03-12T11:56:33;58081.53;;;-156.57;100.00
58467;BME280;44255;49.244;7.726;2023-03-12T11:58:58;58081.53;;;-156.57;100.00
58467;BME280;44255;49.244;7.726;2023-03-12T12:03:59;58081.53;;;-156.57;100.00
58467;BME280;44255;49.244;7.726;2023-03-12T12:06:33;58081.53;;;-156.57;100.00
58467;BME280;44255;49.244;7.726;2023-03-12T12:14:06;58081.53;;;-156.57;100.00
58467;BME280;44255;49.244;7.726;2023-03-12T12:19:32;58081.53;;;-156.57;100.00
58467;BME280;44255;49.244;7.726;2023-03-12T12:22:10;58081.53;;;-156.57;100.00
58467;BME280;44255;49.244;7.726;2023-03-12T12:27:27;58081.53;;;-156.57;100.00
58467;BME280;44255;49.244;7.726;2023-03-12T12:32:23;58081.53;;;-156.57;100.00
58467;BME280;44255;49.244;7.726;2023-03-12T12:34:55;58081.53;;;-156.57;100.00
58467;BME280;44255;49.244;7.726;2023-03-12T12:37:30;58081.53;;;-156.57;100.00
58467;BME280;44255;49.244;7.726;2023-03-12T12:42:26;58081.53;;;-156.57;100.00
58467;BME280;44255;49.244;7.726;2023-03-12T12:44:54;58081.53;;;-156.57;100.00
58467;BME280;44255;49.244;7.726;2023-03-12T12:47:31;58081.53;;;-156.57;100.00
58467;BME280;44255;49.244;7.726;2023-03-12T12:49:57;58081.53;;;-156.57;100.00
58467;BME280;44255;49.244;7.726;2023-03-12T12:52:22;58081.53;;;-156.57;100.00
58467;BME280;44255;49.244;7.726;2023-03-12T12:57:36;58081.53;;;-156.57;100.00
58467;BME280;44255;49.244;7.726;2023-03-12T13:02:35;58081.53;;;-156.57;100.00
58467;BME280;44255;49.244;7.726;2023-03-12T13:05:02;58081.53;;;-156.57;100.00
58467;BME280;44255;49.244;7.726;2023-03-12T13:07:28;58081.53;;;-156.57;100.00
58467;BME280;44255;49.244;7.726;2023-03-12T13:09:57;58081.53;;;-156.57;100.00
58467;BME280;44255;49.244;7.726;2023-03-12T13:12:32;58081.53;;;-156.57;100.00
58467;BME280;44255;49.244;7.726;2023-03-12T13:15:00;58081.53;;;-156.57;100.00
58467;BME280;44255;49.244;7.726;2023-03-12T13:20:13;58081.53;;;-156.57;100.00
58467;BME280;44255;49.244;7.726;2023-03-12T13:22:56;58081.53;;;-156.57;100.00
58467;BME280;44255;49.244;7.726;2023-03-12T13:30:50;58081.53;;;-156.57;100.00
58467;BME280;44255;49.244;7.726;2023-03-12T13:33:16;58081.53;;;-156.57;100.00
58467;BME280;44255;49.244;7.726;2023-03-12T13:38:33;58081.53;;;-156.57;100.00
58467;BME280;44255;49.244;7.726;2023-03-12T13:40:59;58081.53;;;-156.57;100.00
58467;BME280;44255;49.244;7.726;2023-03-12T13:43:30;58081.53;;;-156.57;100.00
58467;BME280;44255;49.244;7.726;2023-03-12T13:46:00;58081.53;;;-156.57;100.00
58467;BME280;44255;49.244;7.726;2023-03-12T13:48:28;58081.53;;;-156.57;100.00
58467;BME280;44255;49.244;7.726;2023-03-12T13:50:54;58081.53;;;-156.57;100.00
58467;BME280;44255;49.244;7.726;2023-03-12T13:53:22;58081.53;;;-156.57;100.00
58467;BME280;44255;49.244;7.726;2023-03-12T13:55:49;58081.53;;;-156.57;100.00
58467;BME280;44255;49.244;7.726;2023-03-12T13:58:23;58081.53;;;-156.57;100.00
58467;BME280;44255;49.244;7.726;2023-03-12T14:01:01;58081.53;;;-156.57;100.00
58467;BME280;44255;49.244;7.726;2023-03-12T14:06:06;58081.53;;;-156.57;100.00
58467;BME280;44255;49.244;7.726;2023-03-12T14:19:00;58081.53;;;-156.57;100.00
58467;BME280;44255;49.244;7.726;2023-03-12T14:21:28;58081.53;;;-156.57;100.00
58467;BME280;44255;49.244;7.726;2023-03-12T14:23:56;58081.53;;;-156.57;100.00
58467;BME280;44255;49.244;7.726;2023-03-12T14:26:24;58081.53;;;-156.57;100.00
58467;BME280;44255;49.244;7.726;2023-03-12T14:28:53;58081.53;;;-156.57;100.00
58467;BME280;44255;49.244;7.726;2023-03-12T14:31:20;58081.53;;;-156.57;100.00
58467;BME280;44255;49.244;7.726;2023-03-12T14:34:02;58081.53;;;-156.57;100.00
58467;BME280;44255;49.244;7.726;2023-03-12T14:36:35;58081.53;;;-156.57;100.00
58467;BME280;44255;49.244;7.726;2023-03-12T14:41:46;58081.53;;;-156.57;100.00
58467;BME280;44255;49.244;7.726;2023-03-12T14:44:24;58081.53;;;-156.57;100.00
58467;BME280;44255;49.244;7.726;2023-03-12T14:47:04;58081.53;;;-156.57;100.00
58467;BME280;44255;49.244;7.726;2023-03-12T14:49:31;58081.53;;;-156.57;100.00
58467;BME280;44255;49.244;7.726;2023-03-12T14:52:02;58081.53;;;-156.57;100.00
58467;BME280;44255;49.244;7.726;2023-03-12T14:54:28;58081.53;;;-156.57;100.00
58467;BME280;44255;49.244;7.726;2023-03-12T14:56:53;58081.53;;;-156.57;100.00
58467;BME280;44255;49.244;7.726;2023-03-12T15:01:50;58081.53;;;-156.57;100.00
58467;BME280;44255;49.244;7.726;2023-03-12T15:04:19;58081.53;;;-156.57;100.00
58467;BME280;44255;49.244;7.726;2023-03-12T15:09:13;58081.53;;;-156.57;100.00
58467;BME280;44255;49.244;7.726;2023-03-12T15:11:39;58081.53;;;-156.57;100.00
58467;BME280;44255;49.244;7.726;2023-03-12T15:14:11;58081.53;;;-156.57;100.00
58467;BME280;44255;49.244;7.726;2023-03-12T15:16:38;58081.53;;;-156.57;100.00
58467;BME280;44255;49.244;7.726;2023-03-12T15:19:04;58081.53;;;-156.57;100.00
58467;BME280;44255;49.244;7.726;2023-03-12T15:21:33;58081.53;;;-156.57;100.00
58467;BME280;44255;49.244;7.726;2023-03-12T15:23:59;58081.53;;;-156.57;100.00
58467;BME280;44255;49.244;7.726;2023-03-12T15:26:27;58081.53;;;-156.57;100.00
58467;BME280;44255;49.244;7.726;2023-03-12T15:28:53;58081.53;;;-156.57;100.00
58467;BME280;44255;49.244;7.726;2023-03-12T15:31:18;58081.53;;;-156.57;100.00
58467;BME280;44255;49.244;7.726;2023-03-12T15:33:44;58081.53;;;-156.57;100.00
58467;BME280;44255;49.244;7.726;2023-03-12T15:38:51;58081.53;;;-156.57;100.00
58467;BME280;44255;49.244;7.726;2023-03-12T15:41:20;58081.53;;;-156.57;100.00
58467;BME280;44255;49.244;7.726;2023-03-12T15:43:46;58081.53;;;-156.57;100.00
58467;BME280;44255;49.244;7.726;2023-03-12T15:46:15;58081.53;;;-156.57;100.00
58467;BME280;44255;49.244;7.726;2023-03-12T15:48:41;58081.53;;;-156.57;100.00
58467;BME280;44255;49.244;7.726;2023-03-12T15:51:14;58081.53;;;-156.57;100.00
58467;BME280;44255;49.244;7.726;2023-03-12T15:53:57;58081.53;;;-156.57;100.00
58467;BME280;44255;49.244;7.726;2023-03-12T15:56:22;58081.53;;;-156.57;100.00
58467;BME280;44255;49.244;7.726;2023-03-12T15:58:57;58081.53;;;-156.57;100.00
58467;BME280;44255;49.244;7.726;2023-03-12T17:50:25;97913.31;;;10.43;48.34
58467;BME280;44255;49.244;7.726;2023-03-12T17:52:50;97923.81;;;10.70;46.71
58467;BME280;44255;49.244;7.726;2023-03-12T17:55:16;97918.47;;;10.93;44.92
58467;BME280;44255;49.244;7.726;2023-03-12T17:57:41;97927.09;;;10.51;46.12
58467;BME280;44255;49.244;7.726;2023-03-12T18:00:09;97931.41;;;11.24;44.50
58467;BME280;44255;49.244;7.726;2023-03-12T18:02:37;97926.34;;;11.65;43.88
58467;BME280;44255;49.244;7.726;2023-03-12T18:05:03;97924.63;;;12.19;42.26
58467;BME280;44255;49.244;7.726;2023-03-12T18:07:28;97931.59;;;12.33;42.02
58467;BME280;44255;49.244;7.726;2023-03-12T18:09:54;97928.28;;;10.47;44.65
58467;BME280;44255;49.244;7.726;2023-03-12T18:12:19;97920.06;;;11.75;42.77
58467;BME280;44255;49.244;7.726;2023-03-12T18:14:44;97926.28;;;10.38;45.47
58467;BME280;44255;49.244;7.726;2023-03-12T18:17:09;97926.88;;;9.68;47.16
58467;BME280;44255;49.244;7.726;2023-03-12T18:19:35;97924.50;;;9.26;48.51
58467;BME280;44255;49.244;7.726;2023-03-12T18:22:00;97929.19;;;9.86;47.42
58467;BME280;44255;49.244;7.726;2023-03-12T18:24:25;97925.22;;;9.78;47.52
58467;BME280;44255;49.244;7.726;2023-03-12T18:26:50;97930.22;;;9.59;47.81
58467;BME280;44255;49.244;7.726;2023-03-12T18:29:16;97930.94;;;9.24;48.52
58467;BME280;44255;49.244;7.726;2023-03-12T18:31:42;97932.66;;;9.38;48.64
58467;BME280;44255;49.244;7.726;2023-03-12T18:34:07;97932.75;;;8.84;49.95
58467;BME280;44255;49.244;7.726;2023-03-12T18:36:32;97939.63;;;8.62;50.40
58467;BME280;44255;49.244;7.726;2023-03-12T18:38:57;97936.63;;;10.55;45.92
58467;BME280;44255;49.244;7.726;2023-03-12T18:41:23;97938.06;;;9.75;46.79
58467;BME280;44255;49.244;7.726;2023-03-12T18:43:54;97926.28;;;10.85;45.24
58467;BME280;44255;49.244;7.726;2023-03-12T18:46:19;97941.97;;;10.80;44.94
58467;BME280;44255;49.244;7.726;2023-03-12T18:48:47;97937.84;;;10.51;45.31
58467;BME280;44255;49.244;7.726;2023-03-12T18:51:13;97936.34;;;10.47;45.69
58467;BME280;44255;49.244;7.726;2023-03-12T18:53:38;97942.78;;;9.08;48.53
58467;BME280;44255;49.244;7.726;2023-03-12T18:56:03;97945.25;;;9.11;48.73
58467;BME280;44255;49.244;7.726;2023-03-12T18:58:29;97935.22;;;8.87;49.50
58467;BME280;44255;49.244;7.726;2023-03-12T19:00:55;97946.66;;;9.04;48.95
58467;BME280;44255;49.244;7.726;2023-03-12T19:03:22;97935.47;;;9.10;48.78
58467;BME280;44255;49.244;7.726;2023-03-12T19:05:47;97936.94;;;8.75;49.90
58467;BME280;44255;49.244;7.726;2023-03-12T19:08:13;97947.72;;;9.01;49.81
58467;BME280;44255;49.244;7.726;2023-03-12T19:10:40;97945.34;;;8.97;49.23
58467;BME280;44255;49.244;7.726;2023-03-12T19:13:06;97933.94;;;8.93;49.91
58467;BME280;44255;49.244;7.726;2023-03-12T19:15:37;97944.03;;;8.89;49.65
58467;BME280;44255;49.244;7.726;2023-03-12T19:18:03;97939.78;;;9.00;49.23
58467;BME280;44255;49.244;7.726;2023-03-12T19:20:29;97942.75;;;8.95;49.61
58467;BME280;44255;49.244;7.726;2023-03-12T19:22:54;97948.44;;;8.90;49.48
58467;BME280;44255;49.244;7.726;2023-03-12T19:25:19;97941.66;;;8.59;50.01
58467;BME280;44255;49.244;7.726;2023-03-12T19:27:45;97944.94;;;8.49;50.80
58467;BME280;44255;49.244;7.726;2023-03-12T19:30:10;97943.22;;;8.48;50.80
58467;BME280;44255;49.244;7.726;2023-03-12T19:32:37;97939.47;;;8.38;50.62
58467;BME280;44255;49.244;7.726;2023-03-12T19:35:03;97944.94;;;8.37;50.98
58467;BME280;44255;49.244;7.726;2023-03-12T19:37:28;97939.78;;;8.46;50.69
58467;BME280;44255;49.244;7.726;2023-03-12T19:39:53;97940.78;;;8.18;50.73
58467;BME280;44255;49.244;7.726;2023-03-12T19:42:19;97937.50;;;8.27;50.87
58467;BME280;44255;49.244;7.726;2023-03-12T19:44:44;97939.56;;;8.37;50.71
58467;BME280;44255;49.244;7.726;2023-03-12T19:47:09;97937.50;;;8.27;51.02
58467;BME280;44255;49.244;7.726;2023-03-12T19:49:35;97932.81;;;8.44;50.61
58467;BME280;44255;49.244;7.726;2023-03-12T19:52:01;97937.78;;;8.50;50.19
58467;BME280;44255;49.244;7.726;2023-03-12T19:54:26;97935.63;;;8.68;49.95
58467;BME280;44255;49.244;7.726;2023-03-12T19:56:52;97938.22;;;8.57;50.51
58467;BME280;44255;49.244;7.726;2023-03-12T19:59:17;97937.25;;;8.58;50.21
58467;BME280;44255;49.244;7.726;2023-03-12T20:01:42;97941.88;;;8.56;50.60
58467;BME280;44255;49.244;7.726;2023-03-12T20:04:08;97933.19;;;8.78;50.41
58467;BME280;44255;49.244;7.726;2023-03-12T20:06:34;97932.63;;;8.86;49.43
58467;BME280;44255;49.244;7.726;2023-03-12T20:08:59;97934.50;;;9.24;49.04
58467;BME280;44255;49.244;7.726;2023-03-12T20:11:25;97934.78;;;8.68;50.33
58467;BME280;44255;49.244;7.726;2023-03-12T20:13:50;97927.97;;;9.15;48.68
58467;BME280;44255;49.244;7.726;2023-03-12T20:16:15;97923.63;;;9.26;48.37
58467;BME280;44255;49.244;7.726;2023-03-12T20:18:41;97913.31;;;9.19;48.65
58467;BME280;44255;49.244;7.726;2023-03-12T20:21:07;97913.50;;;8.90;49.61
58467;BME280;44255;49.244;7.726;2023-03-12T20:23:32;97916.50;;;8.60;49.91
58467;BME280;44255;49.244;7.726;2023-03-12T20:25:58;97908.78;;;8.68;49.85
58467;BME280;44255;49.244;7.726;2023-03-12T20:28:23;97917.56;;;8.44;50.40
58467;BME280;44255;49.244;7.726;2023-03-12T20:30:48;97923.31;;;8.25;50.90
58467;BME280;44255;49.244;7.726;2023-03-12T20:33:13;97920.81;;;8.62;50.43